createdAt,value
2023-02-28T00:01:38.274Z,37.28
2023-02-28T00:04:05.791Z,37.21
2023-02-28T00:06:33.317Z,37.54
2023-02-28T00:09:00.857Z,37.65
2023-02-28T00:11:28.691Z,37.56
2023-02-28T00:13:56.412Z,37.71
2023-02-28T00:16:24.070Z,38.03
2023-02-28T00:18:51.961Z,37.94
2023-02-28T00:21:20.731Z,38.27
2023-02-28T00:23:49.439Z,37.95
2023-02-28T00:26:17.278Z,38.08
2023-02-28T00:28:46.767Z,38.62
2023-02-28T00:31:14.925Z,38.42
2023-02-28T00:33:42.731Z,38.42
2023-02-28T00:36:12.508Z,38.41
2023-02-28T00:38:41.402Z,38.64
2023-02-28T00:41:09.528Z,38.60
2023-02-28T00:43:39.959Z,38.90
2023-02-28T00:46:08.439Z,39.11
2023-02-28T00:48:36.632Z,38.94
2023-02-28T00:51:05.069Z,38.97
2023-02-28T00:53:33.671Z,38.97
2023-02-28T00:56:01.658Z,39.19
2023-02-28T00:58:29.605Z,39.12
2023-02-28T01:00:57.309Z,39.03
2023-02-28T01:03:25.238Z,39.25
2023-02-28T01:05:54.191Z,39.54
2023-02-28T01:08:22.327Z,39.58
2023-02-28T01:10:51.692Z,39.61
2023-02-28T01:13:20.632Z,39.57
2023-02-28T01:15:53.170Z,39.81
2023-02-28T01:18:22.260Z,39.64
2023-02-28T01:20:50.319Z,39.79
2023-02-28T01:23:17.950Z,40.01
2023-02-28T01:25:45.577Z,39.95
2023-02-28T01:28:13.141Z,40.14
2023-02-28T01:30:40.673Z,39.85
2023-02-28T01:33:08.247Z,40.39
2023-02-28T01:35:36.830Z,40.60
2023-02-28T01:38:20.558Z,40.29
2023-02-28T01:40:48.910Z,40.44
2023-02-28T01:43:27.350Z,40.41
2023-02-28T01:45:58.595Z,40.42
2023-02-28T01:48:33.221Z,40.25
2023-02-28T01:51:11.508Z,40.31
2023-02-28T01:53:48.496Z,40.93
2023-02-28T01:56:23.664Z,40.69
2023-02-28T01:58:53.901Z,40.79
2023-02-28T02:01:23.515Z,40.74
2023-02-28T02:04:02.339Z,40.51
2023-02-28T02:06:38.115Z,41.07
2023-02-28T02:09:09.018Z,40.68
2023-02-28T02:11:37.462Z,41.32
2023-02-28T02:14:46.183Z,41.40
2023-02-28T02:17:36.835Z,40.90
2023-02-28T02:20:55.746Z,41.33
2023-02-28T02:23:41.787Z,41.20
2023-02-28T02:26:42.017Z,41.41
2023-02-28T02:29:56.721Z,41.32
2023-02-28T02:33:06.792Z,41.33
2023-02-28T02:36:05.063Z,41.71
2023-02-28T02:39:00.374Z,41.71
2023-02-28T02:41:42.805Z,41.67
2023-02-28T02:44:15.320Z,41.68
2023-02-28T02:46:46.035Z,41.71
2023-02-28T02:49:26.070Z,41.71
2023-02-28T02:51:56.920Z,42.09
2023-02-28T02:54:33.320Z,42.52
2023-02-28T02:57:09.451Z,42.21
2023-02-28T02:59:39.988Z,42.09
2023-02-28T03:02:13.198Z,42.68
2023-02-28T03:04:49.725Z,42.63
2023-02-28T03:07:17.314Z,42.71
2023-02-28T03:09:59.097Z,42.11
2023-02-28T03:12:55.277Z,42.26
2023-02-28T03:16:00.474Z,42.64
2023-02-28T03:18:51.182Z,42.77
2023-02-28T03:22:18.743Z,42.77
2023-02-28T03:25:37.486Z,42.47
2023-02-28T03:28:31.003Z,42.80
2023-02-28T03:31:20.286Z,42.66
2023-02-28T03:34:28.585Z,42.44
2023-02-28T03:37:02.946Z,43.01
2023-02-28T03:39:40.832Z,42.77
2023-02-28T03:42:15.472Z,43.09
2023-02-28T03:44:51.048Z,43.12
2023-02-28T03:47:45.728Z,43.02
2023-02-28T03:50:21.021Z,42.75
2023-02-28T03:53:02.292Z,42.56
2023-02-28T03:55:39.537Z,42.83
2023-02-28T03:58:27.952Z,42.72
2023-02-28T04:01:12.204Z,42.55
2023-02-28T04:03:40.613Z,42.72
2023-02-28T04:06:18.887Z,42.79
2023-02-28T04:08:47.247Z,42.67
2023-02-28T04:11:43.694Z,42.89
2023-02-28T04:14:12.547Z,43.24
2023-02-28T04:16:42.618Z,42.85
2023-02-28T04:19:13.043Z,43.17
2023-02-28T04:21:47.065Z,42.94
2023-02-28T04:24:27.564Z,43.10
2023-02-28T04:26:57.657Z,43.15
2023-02-28T04:29:28.213Z,43.08
2023-02-28T04:32:00.347Z,42.80
2023-02-28T04:34:30.703Z,43.49
2023-02-28T04:37:12.332Z,43.11
2023-02-28T04:39:41.921Z,43.22
2023-02-28T04:42:10.205Z,43.03
2023-02-28T04:44:37.718Z,43.49
2023-02-28T04:47:05.591Z,43.25
2023-02-28T04:49:33.209Z,43.30
2023-02-28T04:52:00.712Z,43.20
2023-02-28T04:54:29.223Z,43.38
2023-02-28T04:56:57.005Z,43.20
2023-02-28T04:59:24.532Z,43.19
2023-02-28T05:01:52.079Z,43.13
2023-02-28T05:04:19.690Z,43.54
2023-02-28T05:06:47.205Z,43.65
2023-02-28T05:09:14.775Z,43.38
2023-02-28T05:11:42.732Z,43.33
2023-02-28T05:14:14.806Z,43.42
2023-02-28T05:16:42.372Z,43.46
2023-02-28T05:19:10.331Z,43.33
2023-02-28T05:21:41.801Z,43.35
2023-02-28T05:24:13.143Z,43.16
2023-02-28T05:26:43.997Z,42.99
2023-02-28T05:29:11.667Z,43.04
2023-02-28T05:31:39.450Z,42.98
2023-02-28T05:34:07.181Z,43.20
2023-02-28T05:36:34.915Z,43.07
2023-02-28T05:39:02.599Z,43.03
2023-02-28T05:41:31.299Z,43.05
2023-02-28T05:44:00.693Z,42.97
2023-02-28T05:46:28.270Z,43.07
2023-02-28T05:48:56.864Z,42.88
2023-02-28T05:51:24.448Z,42.84
2023-02-28T05:53:52.039Z,43.09
2023-02-28T05:56:19.565Z,42.81
2023-02-28T05:58:47.225Z,42.80
2023-02-28T06:01:42.831Z,43.01
2023-02-28T06:04:22.359Z,42.78
2023-02-28T06:06:58.405Z,42.94
2023-02-28T06:09:26.033Z,42.81
2023-02-28T06:11:53.558Z,43.00
2023-02-28T06:14:21.906Z,42.71
2023-02-28T06:16:49.680Z,42.78
2023-02-28T06:19:17.332Z,42.75
2023-02-28T06:21:45.308Z,42.56
2023-02-28T06:24:12.951Z,42.69
2023-02-28T06:26:40.452Z,42.91
2023-02-28T06:29:08.428Z,42.62
2023-02-28T06:31:36.186Z,42.67
2023-02-28T06:34:03.965Z,42.62
2023-02-28T06:36:31.837Z,42.76
2023-02-28T06:38:59.420Z,42.73
2023-02-28T06:41:28.599Z,42.71
2023-02-28T06:43:56.832Z,42.75
2023-02-28T06:46:24.993Z,42.40
2023-02-28T06:48:52.765Z,42.62
2023-02-28T06:51:23.131Z,42.72
2023-02-28T06:53:51.612Z,42.42
2023-02-28T06:56:21.271Z,42.71
2023-02-28T06:58:51.138Z,42.79
2023-02-28T07:01:20.240Z,42.44
2023-02-28T07:03:53.007Z,42.75
2023-02-28T07:06:24.748Z,42.43
2023-02-28T07:08:53.989Z,42.48
2023-02-28T07:11:23.921Z,42.67
2023-02-28T07:13:51.941Z,42.62
2023-02-28T07:16:19.811Z,42.68
2023-02-28T07:18:47.535Z,42.39
2023-02-28T07:21:15.696Z,42.52
2023-02-28T07:23:43.325Z,42.38
2023-02-28T07:26:16.326Z,42.58
2023-02-28T07:28:45.886Z,42.78
2023-02-28T07:31:18.082Z,42.46
2023-02-28T07:33:45.753Z,42.47
2023-02-28T07:36:18.025Z,42.57
2023-02-28T07:38:50.850Z,42.27
2023-02-28T07:41:23.135Z,42.27
2023-02-28T07:43:50.859Z,42.16
2023-02-28T07:46:22.177Z,41.96
2023-02-28T07:48:49.830Z,42.46
2023-02-28T07:51:17.339Z,42.44
2023-02-28T07:53:45.106Z,42.21
2023-02-28T07:56:12.726Z,42.29
2023-02-28T07:58:40.246Z,42.48
2023-02-28T08:01:10.866Z,42.12
2023-02-28T08:03:39.828Z,42.23
2023-02-28T08:06:15.723Z,42.08
2023-02-28T08:08:43.282Z,41.83
2023-02-28T08:11:10.790Z,41.77
2023-02-28T08:13:38.305Z,41.76
2023-02-28T08:16:06.154Z,42.23
2023-02-28T08:18:34.452Z,41.99
2023-02-28T08:21:08.799Z,41.60
2023-02-28T08:23:36.627Z,41.58
2023-02-28T08:26:05.157Z,41.65
2023-02-28T08:28:32.967Z,41.70
2023-02-28T08:31:00.666Z,41.42
2023-02-28T08:33:29.098Z,41.75
2023-02-28T08:35:57.521Z,41.95
2023-02-28T08:38:25.268Z,41.59
2023-02-28T08:41:04.258Z,41.69
2023-02-28T08:43:32.427Z,42.03
2023-02-28T08:46:00.292Z,41.86
2023-02-28T08:48:30.780Z,41.79
2023-02-28T08:51:07.218Z,41.73
2023-02-28T08:53:39.357Z,41.39
2023-02-28T08:56:17.664Z,41.82
2023-02-28T08:58:47.008Z,41.73
2023-02-28T09:01:18.809Z,41.98
2023-02-28T09:03:49.183Z,41.90
2023-02-28T09:06:19.610Z,41.71
2023-02-28T09:08:47.483Z,41.73
2023-02-28T09:11:15.220Z,41.58
2023-02-28T09:13:43.029Z,41.08
2023-02-28T09:16:14.926Z,41.63
2023-02-28T09:18:42.995Z,41.14
2023-02-28T09:21:15.124Z,41.33
2023-02-28T09:23:44.518Z,41.42
2023-02-28T09:26:32.326Z,41.67
2023-02-28T09:29:07.600Z,40.88
2023-02-28T09:31:35.111Z,41.17
2023-02-28T09:34:02.894Z,40.85
2023-02-28T09:36:43.231Z,40.84
2023-02-28T09:39:15.388Z,40.71
2023-02-28T09:41:50.968Z,40.67
2023-02-28T09:44:33.087Z,40.02
2023-02-28T09:47:15.532Z,40.97
2023-02-28T09:49:47.839Z,40.86
2023-02-28T09:52:20.542Z,41.23
2023-02-28T09:54:48.357Z,40.48
2023-02-28T09:57:42.697Z,40.42
2023-02-28T10:00:23.531Z,40.54
2023-02-28T10:03:24.569Z,40.35
2023-02-28T10:06:29.729Z,39.64
2023-02-28T10:09:14.414Z,40.48
2023-02-28T10:11:43.752Z,40.02
2023-02-28T10:14:21.350Z,40.29
2023-02-28T10:17:02.876Z,40.08
2023-02-28T10:19:41.313Z,39.65
2023-02-28T10:22:51.304Z,39.94
2023-02-28T10:25:30.358Z,40.03
2023-02-28T10:28:08.402Z,39.20
2023-02-28T10:30:39.908Z,39.78
2023-02-28T10:33:19.257Z,39.87
2023-02-28T10:35:47.017Z,39.79
2023-02-28T10:38:23.813Z,38.78
2023-02-28T10:40:52.602Z,39.04
2023-02-28T10:43:23.759Z,39.48
2023-02-28T10:46:11.591Z,39.10
2023-02-28T10:48:50.838Z,38.95
2023-02-28T10:51:23.228Z,38.90
2023-02-28T10:54:01.639Z,39.54
2023-02-28T10:56:31.568Z,38.61
2023-02-28T10:59:28.985Z,38.94
2023-02-28T11:01:57.343Z,38.48
2023-02-28T11:04:33.204Z,39.25
2023-02-28T11:07:17.677Z,38.80
2023-02-28T11:09:54.800Z,39.32
2023-02-28T11:12:43.344Z,38.92
2023-02-28T11:15:30.409Z,38.33
2023-02-28T11:18:36.355Z,38.38
2023-02-28T11:21:04.689Z,38.88
2023-02-28T11:23:38.046Z,38.44
2023-02-28T11:26:10.458Z,38.14
2023-02-28T11:28:42.979Z,38.13
2023-02-28T11:31:14.720Z,38.05
2023-02-28T11:33:51.701Z,37.74
2023-02-28T11:36:28.734Z,38.25
2023-02-28T11:39:03.707Z,37.63
2023-02-28T11:42:18.923Z,38.36
2023-02-28T11:45:23.669Z,37.55
2023-02-28T11:48:10.683Z,37.47
2023-02-28T11:51:21.847Z,37.60
2023-02-28T11:54:21.869Z,37.92
2023-02-28T11:56:56.888Z,37.48
2023-02-28T11:59:39.280Z,37.22
2023-02-28T12:02:45.141Z,36.73
2023-02-28T12:05:37.884Z,37.24
2023-02-28T12:08:32.813Z,36.92
2023-02-28T12:11:31.619Z,36.69
2023-02-28T12:14:30.585Z,37.21
2023-02-28T12:17:49.039Z,35.98
2023-02-28T12:20:49.024Z,36.45
2023-02-28T12:24:00.735Z,36.37
2023-02-28T12:26:47.439Z,36.63
2023-02-28T12:29:37.472Z,36.75
2023-02-28T12:32:16.242Z,36.84
2023-02-28T12:34:52.991Z,36.46
2023-02-28T12:37:32.589Z,36.16
2023-02-28T12:40:23.284Z,35.87
2023-02-28T12:42:57.505Z,35.89
2023-02-28T12:46:03.521Z,36.15
2023-02-28T12:48:47.147Z,36.18
2023-02-28T12:51:18.102Z,36.21
2023-02-28T12:53:59.661Z,35.39
2023-02-28T12:57:14.260Z,36.30
2023-02-28T12:59:56.892Z,36.15
2023-02-28T13:02:39.574Z,35.41
2023-02-28T13:05:23.753Z,35.16
2023-02-28T13:08:39.061Z,35.09
2023-02-28T13:11:20.974Z,35.23
2023-02-28T13:13:48.956Z,34.93
2023-02-28T13:16:16.633Z,35.31
2023-02-28T13:18:47.589Z,35.42
2023-02-28T13:21:29.742Z,35.65
2023-02-28T13:24:02.157Z,35.24
2023-02-28T13:26:38.220Z,35.54
2023-02-28T13:29:31.119Z,35.87
2023-02-28T13:32:06.661Z,35.00
2023-02-28T13:34:35.704Z,35.10
2023-02-28T13:37:24.066Z,34.94
2023-02-28T13:39:56.096Z,35.01
2023-02-28T13:42:43.082Z,35.40
2023-02-28T13:45:13.650Z,35.28
2023-02-28T13:47:53.517Z,34.58
2023-02-28T13:50:26.882Z,34.08
2023-02-28T13:53:28.598Z,34.38
2023-02-28T13:56:20.370Z,33.89
2023-02-28T13:59:06.409Z,34.60
2023-02-28T14:01:54.494Z,34.27
2023-02-28T14:05:01.908Z,34.39
2023-02-28T14:07:54.076Z,34.85
2023-02-28T14:10:28.102Z,34.00
2023-02-28T14:12:59.983Z,34.41
2023-02-28T14:16:00.896Z,34.46
2023-02-28T14:18:42.485Z,33.91
2023-02-28T14:21:17.317Z,33.86
2023-02-28T14:24:45.574Z,34.31
2023-02-28T14:27:35.786Z,33.92
2023-02-28T14:30:42.360Z,33.93
2023-02-28T14:33:40.323Z,33.59
2023-02-28T14:36:14.566Z,33.27
2023-02-28T14:38:54.112Z,33.07
2023-02-28T14:41:32.183Z,33.48
2023-02-28T14:44:02.389Z,33.82
2023-02-28T14:46:41.358Z,33.70
2023-02-28T14:49:22.320Z,32.97
2023-02-28T14:52:02.520Z,33.35
2023-02-28T14:54:30.460Z,33.46
2023-02-28T14:56:57.949Z,33.37
2023-02-28T14:59:33.869Z,32.89
2023-02-28T15:02:24.737Z,33.23
2023-02-28T15:05:02.889Z,33.72
2023-02-28T15:07:30.622Z,33.58
2023-02-28T15:10:28.764Z,33.82
2023-02-28T15:13:16.690Z,33.45
2023-02-28T15:16:05.594Z,32.71
2023-02-28T15:18:57.327Z,33.08
2023-02-28T15:21:38.752Z,33.33
2023-02-28T15:24:37.530Z,33.19
2023-02-28T15:27:14.890Z,32.81
2023-02-28T15:29:52.838Z,33.38
2023-02-28T15:32:37.208Z,33.47
2023-02-28T15:35:23.636Z,33.64
2023-02-28T15:38:15.215Z,33.46
2023-02-28T15:40:54.560Z,33.17
2023-02-28T15:43:28.893Z,33.44
2023-02-28T15:46:10.741Z,33.34
2023-02-28T15:48:57.562Z,33.29
2023-02-28T15:51:43.309Z,33.62
2023-02-28T15:54:25.381Z,33.62
2023-02-28T15:56:57.337Z,33.75
2023-02-28T15:59:29.546Z,33.56
2023-02-28T16:02:21.856Z,33.67
2023-02-28T16:05:08.529Z,33.58
2023-02-28T16:07:39.838Z,33.71
2023-02-28T16:10:11.927Z,33.77
2023-02-28T16:12:40.820Z,34.07
2023-02-28T16:15:31.861Z,34.33
2023-02-28T16:17:59.446Z,34.25
2023-02-28T16:20:30.363Z,34.02
2023-02-28T16:23:02.090Z,34.14
2023-02-28T16:25:42.903Z,34.28
2023-02-28T16:28:33.420Z,34.40
2023-02-28T16:31:03.551Z,34.65
2023-02-28T16:33:32.520Z,34.63
2023-02-28T16:36:01.221Z,34.67
2023-02-28T16:38:28.704Z,34.47
2023-02-28T16:41:00.017Z,34.43
2023-02-28T16:43:28.607Z,34.63
2023-02-28T16:46:01.256Z,34.49
2023-02-28T16:48:28.937Z,34.73
2023-02-28T16:50:56.431Z,34.87
2023-02-28T16:53:23.935Z,35.02
2023-02-28T16:55:51.904Z,34.68
2023-02-28T16:58:22.294Z,34.83
2023-02-28T17:00:50.996Z,35.15
2023-02-28T17:03:33.180Z,34.97
2023-02-28T17:06:02.018Z,35.15
2023-02-28T17:08:30.744Z,35.31
2023-02-28T17:10:58.765Z,35.23
2023-02-28T17:13:26.314Z,35.20
2023-02-28T17:15:54.031Z,35.32
2023-02-28T17:18:24.931Z,35.44
2023-02-28T17:20:52.420Z,35.93
2023-02-28T17:23:19.929Z,35.62
2023-02-28T17:25:56.255Z,35.67
2023-02-28T17:28:24.837Z,35.38
2023-02-28T17:30:52.376Z,35.62
2023-02-28T17:33:20.113Z,35.57
2023-02-28T17:35:47.692Z,36.35
2023-02-28T17:38:20.341Z,36.22
2023-02-28T17:40:47.938Z,36.17
2023-02-28T17:43:15.878Z,35.81
2023-02-28T17:45:43.504Z,35.69
2023-02-28T17:48:12.612Z,36.00
2023-02-28T17:50:40.184Z,36.04
2023-02-28T17:53:07.898Z,36.18
2023-02-28T17:55:36.070Z,36.37
2023-02-28T17:58:04.593Z,36.35
2023-02-28T18:00:35.285Z,36.21
2023-02-28T18:03:02.842Z,36.73
2023-02-28T18:05:31.597Z,37.03
2023-02-28T18:07:59.347Z,36.40
2023-02-28T18:10:28.243Z,36.98
2023-02-28T18:12:55.776Z,37.23
2023-02-28T18:15:23.484Z,36.99
2023-02-28T18:17:51.281Z,37.00
2023-02-28T18:20:19.718Z,36.58
2023-02-28T18:22:47.473Z,37.05
2023-02-28T18:25:16.893Z,37.28
2023-02-28T18:27:54.071Z,36.48
2023-02-28T18:30:22.815Z,36.70
2023-02-28T18:32:50.322Z,37.04
2023-02-28T18:35:34.509Z,37.64
2023-02-28T18:38:19.304Z,37.46
2023-02-28T18:41:07.307Z,37.08
2023-02-28T18:43:38.366Z,37.41
2023-02-28T18:46:14.485Z,37.38
2023-02-28T18:48:42.325Z,37.96
2023-02-28T18:51:15.798Z,37.81
2023-02-28T18:53:44.462Z,37.52
2023-02-28T18:56:14.876Z,37.86
2023-02-28T18:58:42.958Z,37.88
2023-02-28T19:01:21.428Z,37.79
2023-02-28T19:03:50.828Z,38.35
2023-02-28T19:06:19.081Z,38.34
2023-02-28T19:08:47.333Z,38.02
2023-02-28T19:11:19.295Z,37.79
2023-02-28T19:13:47.541Z,37.88
2023-02-28T19:16:19.161Z,38.72
2023-02-28T19:18:46.906Z,38.36
2023-02-28T19:21:17.909Z,38.02
2023-02-28T19:23:45.448Z,38.92
2023-02-28T19:26:17.576Z,38.82
2023-02-28T19:28:45.669Z,38.64
2023-02-28T19:31:20.895Z,38.25
2023-02-28T19:33:48.953Z,38.81
2023-02-28T19:36:16.638Z,38.80
2023-02-28T19:38:46.889Z,38.62
2023-02-28T19:41:16.078Z,39.08
2023-02-28T19:43:44.068Z,38.54
2023-02-28T19:46:14.310Z,38.64
2023-02-28T19:48:42.741Z,38.74
2023-02-28T19:51:13.721Z,39.15
2023-02-28T19:53:42.967Z,38.79
2023-02-28T19:56:11.346Z,39.16
2023-02-28T19:58:39.487Z,39.00
2023-02-28T20:01:15.897Z,38.94
2023-02-28T20:03:46.740Z,38.64
2023-02-28T20:06:14.989Z,39.35
2023-02-28T20:08:43.173Z,39.31
2023-02-28T20:11:15.528Z,39.23
2023-02-28T20:13:44.571Z,39.54
2023-02-28T20:16:14.129Z,38.93
2023-02-28T20:18:44.254Z,38.83
2023-02-28T20:21:13.451Z,39.40
2023-02-28T20:23:41.644Z,39.05
2023-02-28T20:26:09.845Z,39.25
2023-02-28T20:28:39.280Z,39.33
2023-02-28T20:31:22.131Z,39.76
2023-02-28T20:33:51.349Z,39.27
2023-02-28T20:36:21.199Z,39.81
2023-02-28T20:38:51.359Z,40.39
2023-02-28T20:41:19.673Z,40.38
2023-02-28T20:43:47.280Z,39.67
2023-02-28T20:46:14.941Z,39.71
2023-02-28T20:48:42.421Z,39.89
2023-02-28T20:51:10.894Z,40.59
2023-02-28T20:53:38.430Z,40.18
2023-02-28T20:56:13.971Z,40.30
2023-02-28T20:58:42.542Z,40.50
2023-02-28T21:01:25.969Z,40.20
2023-02-28T21:04:00.695Z,40.66
2023-02-28T21:06:31.843Z,41.06
2023-02-28T21:08:59.946Z,40.92
2023-02-28T21:11:31.616Z,40.71
2023-02-28T21:14:01.737Z,40.20
2023-02-28T21:16:29.987Z,40.74
2023-02-28T21:19:04.537Z,40.43
2023-02-28T21:21:38.952Z,40.96
2023-02-28T21:24:07.094Z,40.54
2023-02-28T21:26:34.682Z,41.00
2023-02-28T21:29:03.638Z,40.87
2023-02-28T21:31:33.773Z,41.15
2023-02-28T21:34:04.711Z,41.23
2023-02-28T21:36:39.484Z,41.34
2023-02-28T21:39:19.477Z,41.50
2023-02-28T21:41:47.771Z,41.10
2023-02-28T21:44:18.974Z,41.23
2023-02-28T21:46:56.829Z,41.12
2023-02-28T21:49:24.481Z,41.11
2023-02-28T21:51:51.967Z,41.19
2023-02-28T21:54:19.530Z,41.59
2023-02-28T21:56:47.024Z,41.79
2023-02-28T21:59:14.536Z,41.42
2023-02-28T22:01:44.378Z,41.25
2023-02-28T22:04:20.951Z,41.71
2023-02-28T22:06:55.169Z,41.95
2023-02-28T22:09:23.329Z,42.18
2023-02-28T22:11:51.184Z,42.03
2023-02-28T22:14:18.797Z,42.29
2023-02-28T22:16:55.204Z,41.93
2023-02-28T22:19:23.558Z,42.39
2023-02-28T22:21:53.581Z,42.01
2023-02-28T22:24:24.094Z,42.34
2023-02-28T22:26:52.510Z,42.26
2023-02-28T22:29:20.066Z,42.36
2023-02-28T22:31:47.761Z,42.48
2023-02-28T22:34:15.411Z,42.77
2023-02-28T22:36:43.445Z,42.54
2023-02-28T22:39:11.919Z,42.22
2023-02-28T22:41:40.145Z,42.76
2023-02-28T22:44:08.086Z,43.09
2023-02-28T22:46:36.710Z,42.98
2023-02-28T22:49:05.836Z,42.78
2023-02-28T22:51:34.580Z,42.95
2023-02-28T22:54:02.214Z,42.66
2023-02-28T22:56:30.683Z,42.76
2023-02-28T22:59:00.295Z,42.52
2023-02-28T23:01:31.782Z,42.64
2023-02-28T23:04:00.192Z,42.52
2023-02-28T23:06:43.540Z,42.86
2023-02-28T23:09:21.608Z,42.80
2023-02-28T23:11:51.127Z,42.54
2023-02-28T23:14:20.890Z,42.82
2023-02-28T23:16:52.213Z,42.54
2023-02-28T23:19:21.968Z,42.60
2023-02-28T23:21:50.333Z,42.51
2023-02-28T23:24:21.036Z,43.00
2023-02-28T23:26:51.837Z,43.08
2023-02-28T23:29:21.129Z,43.13
2023-02-28T23:31:50.020Z,43.26
2023-02-28T23:34:24.806Z,43.20
2023-02-28T23:36:54.665Z,42.91
2023-02-28T23:39:24.143Z,43.06
2023-02-28T23:41:52.748Z,43.24
2023-02-28T23:44:20.338Z,43.39
2023-02-28T23:46:52.600Z,43.47
2023-02-28T23:49:21.249Z,43.22
2023-02-28T23:51:51.051Z,43.28
2023-02-28T23:54:19.213Z,43.71
2023-02-28T23:56:46.954Z,43.77
2023-02-28T23:59:14.743Z,43.44
